Startpagina
METAR-TAF:

METAR-TAF

Vliegvelden :

Kenneth Kaunda International Airport

Lusaka, Zambia

breedte: 15-19-51S, lengte: 028-27-09E, hoogte: 1152 m

Actueel weer

Dit bericht is 1 uur en het 4 minuten geleden gemaakt, om 22:00 UTC
Weinig wind
Temperatuur 10°C
Vochtigheid 66%
Druk 1023 hPa
Zicht 10 km of meer
geen wolken onder 1500 m en geen cumulonimbus

METAR: FLKK 232200Z 00000KT CAVOK 10/04 Q1023

Tijdstip: 01:04 (23:04 UTC)

Verwachting

Dit bericht is 13 uur en het 4 minuten geleden gemaakt, om 10:00 UTC
Verwachting geldig van 23 om 12 UTC tot 24 om 18 UTC
Wind 5 kt uit het oosten met uitschieters tot 10 kt
Zicht: 9000 m
Onbewolkt
Heiigheid
Van 23 om 1700 UTC
Wind 3 kt uit variabele richting
Zicht 10 km of meer
geen wolken onder 1500 m en geen cumulonimbus

TAF: FLKK 231000Z 2312/2418 10005G10KT 9000 HZ SKC FM231700 VRB03KT CAVOK

Waarnemingen en weersverwachtingen van meer dan 4000 vliegvelden (METAR en TAF).

De beschikbare stations zijn de gele en rode punten op de kaart.

Ga met uw muis naar het station om de naam te zien.

Klik dan om waarnemingen en weersverwachtingen te zien.

kaart wijzigen: klik op de groene knoppen met een zwart kruis om in te zoomen, op de groene knop met een streepje om uit te zoomen of op de groene pijlen voor aangrenzende kaarten.


METAR-TAF: